sensor_id;sensor_type;location;lat;lon;timestamp;P1;durP1;ratioP1;P2;durP2;ratioP2
28988;SDS011;16089;59.952;10.818;2023-03-23T00:01:16;34.55;;;4.57;;
28988;SDS011;16089;59.952;10.818;2023-03-23T00:03:44;42.00;;;4.55;;
28988;SDS011;16089;59.952;10.818;2023-03-23T00:06:11;35.60;;;4.50;;
28988;SDS011;16089;59.952;10.818;2023-03-23T00:08:43;38.25;;;5.10;;
28988;SDS011;16089;59.952;10.818;2023-03-23T00:11:11;44.00;;;5.70;;
28988;SDS011;16089;59.952;10.818;2023-03-23T00:13:40;37.00;;;4.43;;
28988;SDS011;16089;59.952;10.818;2023-03-23T00:16:06;30.42;;;4.35;;
28988;SDS011;16089;59.952;10.818;2023-03-23T00:18:43;30.98;;;4.28;;
28988;SDS011;16089;59.952;10.818;2023-03-23T00:21:10;43.95;;;4.88;;
28988;SDS011;16089;59.952;10.818;2023-03-23T00:23:36;45.15;;;6.13;;
28988;SDS011;16089;59.952;10.818;2023-03-23T00:26:04;34.58;;;6.55;;
28988;SDS011;16089;59.952;10.818;2023-03-23T00:28:31;42.03;;;6.05;;
28988;SDS011;16089;59.952;10.818;2023-03-23T00:30:57;41.50;;;5.45;;
28988;SDS011;16089;59.952;10.818;2023-03-23T00:33:26;38.38;;;5.10;;
28988;SDS011;16089;59.952;10.818;2023-03-23T00:35:52;39.03;;;4.60;;
28988;SDS011;16089;59.952;10.818;2023-03-23T00:38:19;33.72;;;4.68;;
28988;SDS011;16089;59.952;10.818;2023-03-23T00:40:45;39.75;;;4.82;;
28988;SDS011;16089;59.952;10.818;2023-03-23T00:43:13;29.13;;;4.22;;
28988;SDS011;16089;59.952;10.818;2023-03-23T00:45:40;39.20;;;4.95;;
28988;SDS011;16089;59.952;10.818;2023-03-23T00:48:06;44.28;;;5.53;;
28988;SDS011;16089;59.952;10.818;2023-03-23T00:50:33;37.22;;;5.20;;
28988;SDS011;16089;59.952;10.818;2023-03-23T00:52:59;41.40;;;5.57;;
28988;SDS011;16089;59.952;10.818;2023-03-23T00:55:25;48.97;;;5.45;;
28988;SDS011;16089;59.952;10.818;2023-03-23T00:57:52;50.25;;;5.68;;
28988;SDS011;16089;59.952;10.818;2023-03-23T01:00:20;44.70;;;4.90;;
28988;SDS011;16089;59.952;10.818;2023-03-23T01:02:47;40.35;;;5.57;;
28988;SDS011;16089;59.952;10.818;2023-03-23T01:05:16;49.50;;;6.20;;
28988;SDS011;16089;59.952;10.818;2023-03-23T01:07:42;45.67;;;6.32;;
28988;SDS011;16089;59.952;10.818;2023-03-23T01:10:10;51.88;;;5.60;;
28988;SDS011;16089;59.952;10.818;2023-03-23T01:12:37;43.53;;;6.22;;
28988;SDS011;16089;59.952;10.818;2023-03-23T01:15:04;43.45;;;6.53;;
28988;SDS011;16089;59.952;10.818;2023-03-23T01:17:32;59.40;;;5.93;;
28988;SDS011;16089;59.952;10.818;2023-03-23T01:19:58;49.58;;;6.85;;
28988;SDS011;16089;59.952;10.818;2023-03-23T01:22:25;53.03;;;6.95;;
28988;SDS011;16089;59.952;10.818;2023-03-23T01:24:51;44.53;;;7.22;;
28988;SDS011;16089;59.952;10.818;2023-03-23T01:27:18;50.72;;;6.82;;
28988;SDS011;16089;59.952;10.818;2023-03-23T01:29:44;55.80;;;6.72;;
28988;SDS011;16089;59.952;10.818;2023-03-23T01:32:10;54.42;;;7.18;;
28988;SDS011;16089;59.952;10.818;2023-03-23T01:34:38;39.30;;;5.90;;
28988;SDS011;16089;59.952;10.818;2023-03-23T01:37:04;54.65;;;6.63;;
28988;SDS011;16089;59.952;10.818;2023-03-23T01:39:31;37.60;;;6.10;;
28988;SDS011;16089;59.952;10.818;2023-03-23T01:41:57;53.15;;;4.93;;
28988;SDS011;16089;59.952;10.818;2023-03-23T01:47:09;58.75;;;6.32;;
28988;SDS011;16089;59.952;10.818;2023-03-23T01:49:36;40.63;;;4.95;;
28988;SDS011;16089;59.952;10.818;2023-03-23T01:52:06;42.92;;;5.32;;
28988;SDS011;16089;59.952;10.818;2023-03-23T01:54:33;47.53;;;5.43;;
28988;SDS011;16089;59.952;10.818;2023-03-23T01:57:02;36.00;;;7.05;;
28988;SDS011;16089;59.952;10.818;2023-03-23T01:59:30;49.60;;;6.32;;
28988;SDS011;16089;59.952;10.818;2023-03-23T02:01:58;54.67;;;7.25;;
28988;SDS011;16089;59.952;10.818;2023-03-23T02:04:25;46.63;;;5.63;;
28988;SDS011;16089;59.952;10.818;2023-03-23T02:06:52;49.47;;;5.95;;
28988;SDS011;16089;59.952;10.818;2023-03-23T02:09:22;43.70;;;6.07;;
28988;SDS011;16089;59.952;10.818;2023-03-23T02:11:50;54.03;;;6.43;;
28988;SDS011;16089;59.952;10.818;2023-03-23T02:14:16;47.67;;;6.28;;
28988;SDS011;16089;59.952;10.818;2023-03-23T02:16:43;54.38;;;6.43;;
28988;SDS011;16089;59.952;10.818;2023-03-23T02:19:16;59.40;;;7.20;;
28988;SDS011;16089;59.952;10.818;2023-03-23T02:21:59;62.53;;;6.22;;
28988;SDS011;16089;59.952;10.818;2023-03-23T02:24:40;54.38;;;7.05;;
28988;SDS011;16089;59.952;10.818;2023-03-23T02:27:10;63.20;;;7.68;;
28988;SDS011;16089;59.952;10.818;2023-03-23T02:32:24;47.33;;;7.43;;
28988;SDS011;16089;59.952;10.818;2023-03-23T02:34:59;66.70;;;7.03;;
28988;SDS011;16089;59.952;10.818;2023-03-23T02:37:27;65.22;;;8.80;;
28988;SDS011;16089;59.952;10.818;2023-03-23T02:39:56;61.50;;;8.05;;
28988;SDS011;16089;59.952;10.818;2023-03-23T02:42:24;69.43;;;6.65;;
28988;SDS011;16089;59.952;10.818;2023-03-23T02:44:52;65.20;;;7.80;;
28988;SDS011;16089;59.952;10.818;2023-03-23T02:47:20;61.60;;;7.90;;
28988;SDS011;16089;59.952;10.818;2023-03-23T02:49:47;58.08;;;6.15;;
28988;SDS011;16089;59.952;10.818;2023-03-23T02:52:17;45.95;;;6.60;;
28988;SDS011;16089;59.952;10.818;2023-03-23T02:54:45;45.75;;;6.82;;
28988;SDS011;16089;59.952;10.818;2023-03-23T02:57:12;46.35;;;6.00;;
28988;SDS011;16089;59.952;10.818;2023-03-23T02:59:39;47.67;;;6.78;;
28988;SDS011;16089;59.952;10.818;2023-03-23T03:02:06;44.58;;;6.10;;
28988;SDS011;16089;59.952;10.818;2023-03-23T03:04:35;49.22;;;5.88;;
28988;SDS011;16089;59.952;10.818;2023-03-23T03:07:19;55.55;;;7.30;;
28988;SDS011;16089;59.952;10.818;2023-03-23T03:09:50;50.17;;;7.17;;
28988;SDS011;16089;59.952;10.818;2023-03-23T03:12:19;51.95;;;6.60;;
28988;SDS011;16089;59.952;10.818;2023-03-23T03:14:48;56.17;;;6.53;;
28988;SDS011;16089;59.952;10.818;2023-03-23T03:17:18;54.38;;;5.78;;
28988;SDS011;16089;59.952;10.818;2023-03-23T03:19:47;47.95;;;5.95;;
28988;SDS011;16089;59.952;10.818;2023-03-23T03:22:14;47.10;;;6.55;;
28988;SDS011;16089;59.952;10.818;2023-03-23T03:24:43;51.95;;;7.50;;
28988;SDS011;16089;59.952;10.818;2023-03-23T03:27:10;51.28;;;6.68;;
28988;SDS011;16089;59.952;10.818;2023-03-23T03:29:40;45.33;;;6.35;;
28988;SDS011;16089;59.952;10.818;2023-03-23T03:32:08;60.90;;;7.22;;
28988;SDS011;16089;59.952;10.818;2023-03-23T03:34:37;49.15;;;5.57;;
28988;SDS011;16089;59.952;10.818;2023-03-23T03:37:04;54.00;;;6.20;;
28988;SDS011;16089;59.952;10.818;2023-03-23T03:39:33;43.60;;;5.57;;
28988;SDS011;16089;59.952;10.818;2023-03-23T03:42:02;47.65;;;5.78;;
28988;SDS011;16089;59.952;10.818;2023-03-23T03:44:28;54.08;;;6.35;;
28988;SDS011;16089;59.952;10.818;2023-03-23T03:46:55;55.05;;;7.00;;
28988;SDS011;16089;59.952;10.818;2023-03-23T03:49:21;54.67;;;7.30;;
28988;SDS011;16089;59.952;10.818;2023-03-23T03:51:47;52.78;;;5.25;;
28988;SDS011;16089;59.952;10.818;2023-03-23T03:54:14;58.08;;;6.68;;
28988;SDS011;16089;59.952;10.818;2023-03-23T03:56:40;44.22;;;6.93;;
28988;SDS011;16089;59.952;10.818;2023-03-23T03:59:09;51.53;;;6.80;;
28988;SDS011;16089;59.952;10.818;2023-03-23T04:01:37;43.20;;;6.65;;
28988;SDS011;16089;59.952;10.818;2023-03-23T04:04:04;48.33;;;7.13;;
28988;SDS011;16089;59.952;10.818;2023-03-23T04:06:32;46.90;;;6.80;;
28988;SDS011;16089;59.952;10.818;2023-03-23T04:09:01;54.05;;;6.00;;
28988;SDS011;16089;59.952;10.818;2023-03-23T04:11:31;42.22;;;5.80;;
28988;SDS011;16089;59.952;10.818;2023-03-23T04:13:57;57.75;;;7.15;;
28988;SDS011;16089;59.952;10.818;2023-03-23T04:16:25;50.75;;;6.75;;
28988;SDS011;16089;59.952;10.818;2023-03-23T04:18:54;46.30;;;6.63;;
28988;SDS011;16089;59.952;10.818;2023-03-23T04:21:21;53.40;;;6.57;;
28988;SDS011;16089;59.952;10.818;2023-03-23T04:23:47;52.15;;;6.72;;
28988;SDS011;16089;59.952;10.818;2023-03-23T04:26:14;49.38;;;6.65;;
28988;SDS011;16089;59.952;10.818;2023-03-23T04:28:40;60.70;;;7.57;;
28988;SDS011;16089;59.952;10.818;2023-03-23T04:31:08;40.88;;;6.35;;
28988;SDS011;16089;59.952;10.818;2023-03-23T04:33:39;55.83;;;6.93;;
28988;SDS011;16089;59.952;10.818;2023-03-23T04:36:06;51.20;;;6.65;;
28988;SDS011;16089;59.952;10.818;2023-03-23T04:38:32;48.10;;;5.85;;
28988;SDS011;16089;59.952;10.818;2023-03-23T04:40:59;46.72;;;6.57;;
28988;SDS011;16089;59.952;10.818;2023-03-23T04:43:27;54.38;;;6.00;;
28988;SDS011;16089;59.952;10.818;2023-03-23T04:45:54;54.33;;;6.95;;
28988;SDS011;16089;59.952;10.818;2023-03-23T04:48:22;45.00;;;6.45;;
28988;SDS011;16089;59.952;10.818;2023-03-23T04:50:50;57.58;;;6.40;;
28988;SDS011;16089;59.952;10.818;2023-03-23T04:53:17;54.05;;;7.13;;
28988;SDS011;16089;59.952;10.818;2023-03-23T04:55:43;58.92;;;6.63;;
28988;SDS011;16089;59.952;10.818;2023-03-23T04:58:10;53.50;;;7.28;;
28988;SDS011;16089;59.952;10.818;2023-03-23T05:00:39;48.90;;;7.30;;
28988;SDS011;16089;59.952;10.818;2023-03-23T05:03:08;56.17;;;6.43;;
28988;SDS011;16089;59.952;10.818;2023-03-23T05:05:34;51.42;;;7.53;;
28988;SDS011;16089;59.952;10.818;2023-03-23T05:08:02;58.97;;;7.15;;
28988;SDS011;16089;59.952;10.818;2023-03-23T05:10:29;63.08;;;6.95;;
28988;SDS011;16089;59.952;10.818;2023-03-23T05:12:55;47.60;;;6.35;;
28988;SDS011;16089;59.952;10.818;2023-03-23T05:15:21;55.75;;;6.65;;
28988;SDS011;16089;59.952;10.818;2023-03-23T05:17:50;50.38;;;6.45;;
28988;SDS011;16089;59.952;10.818;2023-03-23T05:20:17;55.33;;;7.20;;
28988;SDS011;16089;59.952;10.818;2023-03-23T05:22:45;59.50;;;7.10;;
28988;SDS011;16089;59.952;10.818;2023-03-23T05:25:17;45.75;;;6.00;;
28988;SDS011;16089;59.952;10.818;2023-03-23T05:27:44;56.72;;;6.72;;
28988;SDS011;16089;59.952;10.818;2023-03-23T05:30:13;51.88;;;8.02;;
28988;SDS011;16089;59.952;10.818;2023-03-23T05:32:41;47.88;;;7.65;;
28988;SDS011;16089;59.952;10.818;2023-03-23T05:35:08;54.83;;;7.43;;
28988;SDS011;16089;59.952;10.818;2023-03-23T05:37:34;56.75;;;7.93;;
28988;SDS011;16089;59.952;10.818;2023-03-23T05:40:02;44.97;;;8.63;;
28988;SDS011;16089;59.952;10.818;2023-03-23T05:42:32;51.08;;;7.55;;
28988;SDS011;16089;59.952;10.818;2023-03-23T05:44:59;52.13;;;7.55;;
28988;SDS011;16089;59.952;10.818;2023-03-23T05:47:25;55.22;;;7.60;;
28988;SDS011;16089;59.952;10.818;2023-03-23T05:49:52;44.72;;;6.68;;
28988;SDS011;16089;59.952;10.818;2023-03-23T05:52:18;53.08;;;7.35;;
28988;SDS011;16089;59.952;10.818;2023-03-23T05:54:45;48.33;;;7.25;;
28988;SDS011;16089;59.952;10.818;2023-03-23T05:57:12;51.03;;;7.28;;
28988;SDS011;16089;59.952;10.818;2023-03-23T05:59:39;45.92;;;6.95;;
28988;SDS011;16089;59.952;10.818;2023-03-23T06:02:06;57.67;;;7.40;;
28988;SDS011;16089;59.952;10.818;2023-03-23T06:04:32;44.55;;;7.47;;
28988;SDS011;16089;59.952;10.818;2023-03-23T06:06:58;46.13;;;7.35;;
28988;SDS011;16089;59.952;10.818;2023-03-23T06:09:25;44.88;;;7.30;;
28988;SDS011;16089;59.952;10.818;2023-03-23T06:11:51;53.30;;;6.47;;
28988;SDS011;16089;59.952;10.818;2023-03-23T06:14:17;51.28;;;7.90;;
28988;SDS011;16089;59.952;10.818;2023-03-23T06:16:45;50.15;;;9.55;;
28988;SDS011;16089;59.952;10.818;2023-03-23T06:19:12;51.58;;;9.15;;
28988;SDS011;16089;59.952;10.818;2023-03-23T06:21:39;59.90;;;8.73;;
28988;SDS011;16089;59.952;10.818;2023-03-23T06:24:06;60.78;;;10.13;;
28988;SDS011;16089;59.952;10.818;2023-03-23T06:26:33;61.22;;;9.30;;
28988;SDS011;16089;59.952;10.818;2023-03-23T06:29:00;52.08;;;8.77;;
28988;SDS011;16089;59.952;10.818;2023-03-23T06:31:26;61.42;;;9.88;;
28988;SDS011;16089;59.952;10.818;2023-03-23T06:33:54;52.28;;;9.85;;
28988;SDS011;16089;59.952;10.818;2023-03-23T06:36:21;59.42;;;8.15;;
28988;SDS011;16089;59.952;10.818;2023-03-23T06:38:48;55.28;;;9.10;;
28988;SDS011;16089;59.952;10.818;2023-03-23T06:41:14;51.15;;;9.73;;
28988;SDS011;16089;59.952;10.818;2023-03-23T06:43:40;56.55;;;9.05;;
28988;SDS011;16089;59.952;10.818;2023-03-23T06:46:09;60.97;;;9.98;;
28988;SDS011;16089;59.952;10.818;2023-03-23T06:48:35;59.00;;;8.60;;
28988;SDS011;16089;59.952;10.818;2023-03-23T06:51:03;67.82;;;9.68;;
28988;SDS011;16089;59.952;10.818;2023-03-23T06:53:29;55.47;;;8.52;;
28988;SDS011;16089;59.952;10.818;2023-03-23T06:55:56;68.13;;;11.95;;
28988;SDS011;16089;59.952;10.818;2023-03-23T06:58:22;54.30;;;9.32;;
28988;SDS011;16089;59.952;10.818;2023-03-23T07:00:52;56.38;;;9.18;;
28988;SDS011;16089;59.952;10.818;2023-03-23T07:03:19;55.72;;;9.82;;
28988;SDS011;16089;59.952;10.818;2023-03-23T07:05:45;63.42;;;11.63;;
28988;SDS011;16089;59.952;10.818;2023-03-23T07:08:13;49.05;;;9.38;;
28988;SDS011;16089;59.952;10.818;2023-03-23T07:10:40;51.75;;;9.52;;
28988;SDS011;16089;59.952;10.818;2023-03-23T07:13:06;63.72;;;8.98;;
28988;SDS011;16089;59.952;10.818;2023-03-23T07:15:33;68.05;;;9.98;;
28988;SDS011;16089;59.952;10.818;2023-03-23T07:17:59;57.17;;;9.35;;
28988;SDS011;16089;59.952;10.818;2023-03-23T07:20:25;59.17;;;8.23;;
28988;SDS011;16089;59.952;10.818;2023-03-23T07:22:53;52.15;;;8.52;;
28988;SDS011;16089;59.952;10.818;2023-03-23T07:25:21;56.88;;;8.68;;
28988;SDS011;16089;59.952;10.818;2023-03-23T07:27:47;55.80;;;8.93;;
28988;SDS011;16089;59.952;10.818;2023-03-23T07:30:13;60.70;;;9.95;;
28988;SDS011;16089;59.952;10.818;2023-03-23T07:32:40;61.33;;;9.75;;
28988;SDS011;16089;59.952;10.818;2023-03-23T07:35:07;54.17;;;8.30;;
28988;SDS011;16089;59.952;10.818;2023-03-23T07:37:34;61.88;;;9.55;;
28988;SDS011;16089;59.952;10.818;2023-03-23T07:40:00;58.78;;;10.25;;
28988;SDS011;16089;59.952;10.818;2023-03-23T07:42:35;55.42;;;9.93;;
28988;SDS011;16089;59.952;10.818;2023-03-23T07:45:01;60.67;;;9.82;;
28988;SDS011;16089;59.952;10.818;2023-03-23T07:47:27;59.90;;;10.27;;
28988;SDS011;16089;59.952;10.818;2023-03-23T07:49:53;50.67;;;9.38;;
28988;SDS011;16089;59.952;10.818;2023-03-23T07:52:20;53.33;;;9.80;;
28988;SDS011;16089;59.952;10.818;2023-03-23T07:54:46;54.13;;;9.30;;
28988;SDS011;16089;59.952;10.818;2023-03-23T07:57:12;46.60;;;8.98;;
28988;SDS011;16089;59.952;10.818;2023-03-23T07:59:40;61.90;;;9.93;;
28988;SDS011;16089;59.952;10.818;2023-03-23T08:02:07;47.60;;;9.77;;
28988;SDS011;16089;59.952;10.818;2023-03-23T08:04:34;68.25;;;11.18;;
28988;SDS011;16089;59.952;10.818;2023-03-23T08:07:02;44.50;;;8.85;;
28988;SDS011;16089;59.952;10.818;2023-03-23T08:09:29;48.53;;;8.00;;
28988;SDS011;16089;59.952;10.818;2023-03-23T08:11:55;56.08;;;9.20;;
28988;SDS011;16089;59.952;10.818;2023-03-23T08:14:22;44.45;;;10.23;;
28988;SDS011;16089;59.952;10.818;2023-03-23T08:16:52;45.50;;;9.07;;
28988;SDS011;16089;59.952;10.818;2023-03-23T08:19:20;53.80;;;9.38;;
28988;SDS011;16089;59.952;10.818;2023-03-23T08:21:46;58.22;;;10.52;;
28988;SDS011;16089;59.952;10.818;2023-03-23T08:24:12;62.05;;;11.05;;
28988;SDS011;16089;59.952;10.818;2023-03-23T08:26:39;52.35;;;10.27;;
28988;SDS011;16089;59.952;10.818;2023-03-23T08:29:06;53.33;;;11.02;;
28988;SDS011;16089;59.952;10.818;2023-03-23T08:31:33;53.33;;;10.32;;
28988;SDS011;16089;59.952;10.818;2023-03-23T08:34:01;63.15;;;11.38;;
28988;SDS011;16089;59.952;10.818;2023-03-23T08:36:29;55.03;;;12.32;;
28988;SDS011;16089;59.952;10.818;2023-03-23T08:38:56;56.72;;;12.18;;
28988;SDS011;16089;59.952;10.818;2023-03-23T08:41:23;50.75;;;10.10;;
28988;SDS011;16089;59.952;10.818;2023-03-23T08:43:50;55.60;;;12.30;;
28988;SDS011;16089;59.952;10.818;2023-03-23T08:46:17;59.47;;;11.15;;
28988;SDS011;16089;59.952;10.818;2023-03-23T08:48:44;52.65;;;11.05;;
28988;SDS011;16089;59.952;10.818;2023-03-23T08:51:12;60.65;;;11.27;;
28988;SDS011;16089;59.952;10.818;2023-03-23T08:53:38;51.17;;;11.23;;
28988;SDS011;16089;59.952;10.818;2023-03-23T08:56:06;69.60;;;12.95;;
28988;SDS011;16089;59.952;10.818;2023-03-23T08:58:33;57.55;;;14.23;;
28988;SDS011;16089;59.952;10.818;2023-03-23T09:00:59;51.58;;;14.63;;
28988;SDS011;16089;59.952;10.818;2023-03-23T09:03:25;62.78;;;15.63;;
28988;SDS011;16089;59.952;10.818;2023-03-23T09:05:52;60.35;;;15.35;;
28988;SDS011;16089;59.952;10.818;2023-03-23T09:08:20;61.90;;;14.73;;
28988;SDS011;16089;59.952;10.818;2023-03-23T09:10:46;41.15;;;12.05;;
28988;SDS011;16089;59.952;10.818;2023-03-23T09:13:14;63.95;;;14.45;;
28988;SDS011;16089;59.952;10.818;2023-03-23T09:15:40;58.63;;;13.82;;
28988;SDS011;16089;59.952;10.818;2023-03-23T09:18:07;59.80;;;14.55;;
28988;SDS011;16089;59.952;10.818;2023-03-23T09:20:33;54.97;;;14.63;;
28988;SDS011;16089;59.952;10.818;2023-03-23T09:23:02;55.45;;;15.52;;
28988;SDS011;16089;59.952;10.818;2023-03-23T09:25:30;60.05;;;15.98;;
28988;SDS011;16089;59.952;10.818;2023-03-23T09:27:57;57.05;;;15.90;;
28988;SDS011;16089;59.952;10.818;2023-03-23T09:30:25;56.63;;;13.85;;
28988;SDS011;16089;59.952;10.818;2023-03-23T09:32:51;44.92;;;12.52;;
28988;SDS011;16089;59.952;10.818;2023-03-23T09:35:21;42.28;;;13.20;;
28988;SDS011;16089;59.952;10.818;2023-03-23T09:37:53;38.55;;;12.10;;
28988;SDS011;16089;59.952;10.818;2023-03-23T09:40:20;35.92;;;11.90;;
28988;SDS011;16089;59.952;10.818;2023-03-23T09:42:55;33.13;;;11.32;;
28988;SDS011;16089;59.952;10.818;2023-03-23T09:47:52;32.67;;;10.98;;
28988;SDS011;16089;59.952;10.818;2023-03-23T09:50:22;30.15;;;9.25;;
28988;SDS011;16089;59.952;10.818;2023-03-23T09:52:53;23.73;;;9.27;;
28988;SDS011;16089;59.952;10.818;2023-03-23T09:55:20;24.63;;;8.85;;
28988;SDS011;16089;59.952;10.818;2023-03-23T09:57:49;21.00;;;7.20;;
28988;SDS011;16089;59.952;10.818;2023-03-23T10:00:20;18.17;;;6.72;;
28988;SDS011;16089;59.952;10.818;2023-03-23T10:02:51;23.45;;;7.75;;
28988;SDS011;16089;59.952;10.818;2023-03-23T10:05:31;24.30;;;7.55;;
28988;SDS011;16089;59.952;10.818;2023-03-23T10:07:59;17.90;;;6.53;;
28988;SDS011;16089;59.952;10.818;2023-03-23T10:10:29;16.85;;;6.05;;
28988;SDS011;16089;59.952;10.818;2023-03-23T10:12:58;13.63;;;6.05;;
28988;SDS011;16089;59.952;10.818;2023-03-23T10:15:31;20.90;;;6.38;;
28988;SDS011;16089;59.952;10.818;2023-03-23T10:17:59;15.73;;;5.95;;
28988;SDS011;16089;59.952;10.818;2023-03-23T10:20:37;18.48;;;5.95;;
28988;SDS011;16089;59.952;10.818;2023-03-23T10:23:09;17.58;;;6.07;;
28988;SDS011;16089;59.952;10.818;2023-03-23T10:25:41;18.48;;;6.10;;
28988;SDS011;16089;59.952;10.818;2023-03-23T10:28:10;19.17;;;5.80;;
28988;SDS011;16089;59.952;10.818;2023-03-23T10:30:39;15.98;;;5.53;;
28988;SDS011;16089;59.952;10.818;2023-03-23T10:33:08;12.93;;;5.18;;
28988;SDS011;16089;59.952;10.818;2023-03-23T10:35:37;16.10;;;6.18;;
28988;SDS011;16089;59.952;10.818;2023-03-23T10:38:05;12.63;;;4.82;;
28988;SDS011;16089;59.952;10.818;2023-03-23T10:40:43;10.00;;;4.57;;
28988;SDS011;16089;59.952;10.818;2023-03-23T10:43:12;13.98;;;5.55;;
28988;SDS011;16089;59.952;10.818;2023-03-23T10:45:40;15.63;;;4.80;;
28988;SDS011;16089;59.952;10.818;2023-03-23T10:48:09;17.55;;;5.75;;
28988;SDS011;16089;59.952;10.818;2023-03-23T10:50:37;14.85;;;5.50;;
28988;SDS011;16089;59.952;10.818;2023-03-23T10:53:07;15.95;;;6.88;;
28988;SDS011;16089;59.952;10.818;2023-03-23T10:55:40;20.73;;;8.52;;
28988;SDS011;16089;59.952;10.818;2023-03-23T10:58:09;21.10;;;8.73;;
28988;SDS011;16089;59.952;10.818;2023-03-23T11:00:41;22.08;;;8.27;;
28988;SDS011;16089;59.952;10.818;2023-03-23T11:03:21;22.48;;;8.20;;
28988;SDS011;16089;59.952;10.818;2023-03-23T11:05:49;15.25;;;6.90;;
28988;SDS011;16089;59.952;10.818;2023-03-23T11:08:16;16.92;;;7.35;;
28988;SDS011;16089;59.952;10.818;2023-03-23T11:10:47;14.45;;;5.28;;
28988;SDS011;16089;59.952;10.818;2023-03-23T11:13:15;17.77;;;5.25;;
28988;SDS011;16089;59.952;10.818;2023-03-23T11:15:43;13.10;;;5.00;;
28988;SDS011;16089;59.952;10.818;2023-03-23T11:18:11;8.65;;;3.75;;
28988;SDS011;16089;59.952;10.818;2023-03-23T11:20:40;9.27;;;3.78;;
28988;SDS011;16089;59.952;10.818;2023-03-23T11:23:08;10.27;;;3.40;;
28988;SDS011;16089;59.952;10.818;2023-03-23T11:25:49;13.25;;;4.55;;
28988;SDS011;16089;59.952;10.818;2023-03-23T11:28:16;13.35;;;4.20;;
28988;SDS011;16089;59.952;10.818;2023-03-23T11:30:44;10.98;;;3.90;;
28988;SDS011;16089;59.952;10.818;2023-03-23T11:33:11;14.75;;;4.30;;
28988;SDS011;16089;59.952;10.818;2023-03-23T11:35:42;8.00;;;3.78;;
28988;SDS011;16089;59.952;10.818;2023-03-23T11:38:11;9.27;;;4.25;;
28988;SDS011;16089;59.952;10.818;2023-03-23T11:40:43;13.68;;;4.68;;
28988;SDS011;16089;59.952;10.818;2023-03-23T11:43:12;16.95;;;5.22;;
28988;SDS011;16089;59.952;10.818;2023-03-23T11:45:40;11.65;;;4.88;;
28988;SDS011;16089;59.952;10.818;2023-03-23T11:48:15;15.20;;;4.95;;
28988;SDS011;16089;59.952;10.818;2023-03-23T11:50:48;12.77;;;5.07;;
28988;SDS011;16089;59.952;10.818;2023-03-23T11:53:17;13.27;;;4.68;;
28988;SDS011;16089;59.952;10.818;2023-03-23T11:56:01;12.07;;;4.15;;
28988;SDS011;16089;59.952;10.818;2023-03-23T11:58:31;11.70;;;4.22;;
28988;SDS011;16089;59.952;10.818;2023-03-23T12:00:59;9.77;;;4.72;;
28988;SDS011;16089;59.952;10.818;2023-03-23T12:03:31;8.52;;;4.40;;
28988;SDS011;16089;59.952;10.818;2023-03-23T12:06:01;10.63;;;4.70;;
28988;SDS011;16089;59.952;10.818;2023-03-23T12:08:36;11.23;;;4.18;;
28988;SDS011;16089;59.952;10.818;2023-03-23T12:11:07;9.20;;;3.90;;
28988;SDS011;16089;59.952;10.818;2023-03-23T12:13:39;11.93;;;4.57;;
28988;SDS011;16089;59.952;10.818;2023-03-23T12:16:09;8.68;;;3.65;;
28988;SDS011;16089;59.952;10.818;2023-03-23T12:18:44;8.13;;;3.97;;
28988;SDS011;16089;59.952;10.818;2023-03-23T12:21:15;11.98;;;5.13;;
28988;SDS011;16089;59.952;10.818;2023-03-23T12:23:45;9.77;;;3.95;;
28988;SDS011;16089;59.952;10.818;2023-03-23T12:26:18;9.38;;;4.60;;
28988;SDS011;16089;59.952;10.818;2023-03-23T12:31:29;10.27;;;5.05;;
28988;SDS011;16089;59.952;10.818;2023-03-23T12:34:00;11.73;;;5.90;;
28988;SDS011;16089;59.952;10.818;2023-03-23T12:36:32;15.73;;;7.88;;
28988;SDS011;16089;59.952;10.818;2023-03-23T12:39:09;12.63;;;6.40;;
28988;SDS011;16089;59.952;10.818;2023-03-23T12:41:38;11.57;;;6.05;;
28988;SDS011;16089;59.952;10.818;2023-03-23T12:44:07;12.98;;;6.50;;
28988;SDS011;16089;59.952;10.818;2023-03-23T12:46:48;11.52;;;4.78;;
28988;SDS011;16089;59.952;10.818;2023-03-23T12:49:19;11.40;;;4.55;;
28988;SDS011;16089;59.952;10.818;2023-03-23T12:51:49;13.70;;;4.40;;
28988;SDS011;16089;59.952;10.818;2023-03-23T12:54:18;9.60;;;3.55;;
28988;SDS011;16089;59.952;10.818;2023-03-23T12:56:47;10.75;;;3.90;;
28988;SDS011;16089;59.952;10.818;2023-03-23T12:59:15;7.82;;;3.72;;
28988;SDS011;16089;59.952;10.818;2023-03-23T13:01:44;8.40;;;3.78;;
28988;SDS011;16089;59.952;10.818;2023-03-23T13:04:13;11.68;;;3.85;;
28988;SDS011;16089;59.952;10.818;2023-03-23T13:06:42;7.18;;;3.75;;
28988;SDS011;16089;59.952;10.818;2023-03-23T13:09:11;10.18;;;4.00;;
28988;SDS011;16089;59.952;10.818;2023-03-23T13:11:39;8.80;;;3.65;;
28988;SDS011;16089;59.952;10.818;2023-03-23T13:14:14;10.82;;;3.72;;
28988;SDS011;16089;59.952;10.818;2023-03-23T13:16:44;9.75;;;3.35;;
28988;SDS011;16089;59.952;10.818;2023-03-23T13:19:14;9.00;;;4.30;;
28988;SDS011;16089;59.952;10.818;2023-03-23T13:21:43;9.10;;;4.40;;
28988;SDS011;16089;59.952;10.818;2023-03-23T13:24:12;8.15;;;3.67;;
28988;SDS011;16089;59.952;10.818;2023-03-23T13:26:39;8.40;;;3.67;;
28988;SDS011;16089;59.952;10.818;2023-03-23T13:29:09;10.43;;;4.07;;
28988;SDS011;16089;59.952;10.818;2023-03-23T13:31:38;11.95;;;3.70;;
28988;SDS011;16089;59.952;10.818;2023-03-23T13:34:10;7.45;;;2.78;;
28988;SDS011;16089;59.952;10.818;2023-03-23T13:36:39;6.82;;;2.40;;
28988;SDS011;16089;59.952;10.818;2023-03-23T13:39:17;4.82;;;2.25;;
28988;SDS011;16089;59.952;10.818;2023-03-23T13:41:48;5.85;;;2.15;;
28988;SDS011;16089;59.952;10.818;2023-03-23T13:44:16;5.88;;;2.40;;
28988;SDS011;16089;59.952;10.818;2023-03-23T13:46:53;7.55;;;3.08;;
28988;SDS011;16089;59.952;10.818;2023-03-23T13:49:20;4.03;;;2.05;;
28988;SDS011;16089;59.952;10.818;2023-03-23T13:51:51;7.72;;;3.33;;
28988;SDS011;16089;59.952;10.818;2023-03-23T13:54:25;5.20;;;2.50;;
28988;SDS011;16089;59.952;10.818;2023-03-23T13:56:56;4.63;;;2.10;;
28988;SDS011;16089;59.952;10.818;2023-03-23T13:59:34;6.50;;;1.95;;
28988;SDS011;16089;59.952;10.818;2023-03-23T14:04:46;7.65;;;2.28;;
28988;SDS011;16089;59.952;10.818;2023-03-23T14:07:15;5.63;;;2.03;;
28988;SDS011;16089;59.952;10.818;2023-03-23T14:09:46;4.72;;;1.58;;
28988;SDS011;16089;59.952;10.818;2023-03-23T14:12:14;4.45;;;1.95;;
28988;SDS011;16089;59.952;10.818;2023-03-23T14:14:42;4.80;;;1.50;;
28988;SDS011;16089;59.952;10.818;2023-03-23T14:17:12;4.28;;;1.73;;
28988;SDS011;16089;59.952;10.818;2023-03-23T14:19:40;4.00;;;1.65;;
28988;SDS011;16089;59.952;10.818;2023-03-23T14:22:16;5.00;;;2.00;;
28988;SDS011;16089;59.952;10.818;2023-03-23T14:24:42;12.88;;;2.92;;
28988;SDS011;16089;59.952;10.818;2023-03-23T14:27:12;5.40;;;2.20;;
28988;SDS011;16089;59.952;10.818;2023-03-23T14:29:38;5.05;;;2.45;;
28988;SDS011;16089;59.952;10.818;2023-03-23T14:32:06;7.30;;;2.42;;
28988;SDS011;16089;59.952;10.818;2023-03-23T14:34:33;9.82;;;2.60;;
28988;SDS011;16089;59.952;10.818;2023-03-23T14:37:00;6.15;;;2.42;;
28988;SDS011;16089;59.952;10.818;2023-03-23T14:39:27;6.65;;;2.33;;
28988;SDS011;16089;59.952;10.818;2023-03-23T14:41:54;5.82;;;2.30;;